sensor_id;sensor_type;location;lat;lon;timestamp;P1;durP1;ratioP1;P2;durP2;ratioP2
19585;SDS011;9939;49.246;9.106;2024-03-25T00:01:16;8.33;;;3.13;;
19585;SDS011;9939;49.246;9.106;2024-03-25T00:03:42;10.13;;;3.07;;
19585;SDS011;9939;49.246;9.106;2024-03-25T00:06:08;7.23;;;3.10;;
19585;SDS011;9939;49.246;9.106;2024-03-25T00:08:34;7.70;;;3.00;;
19585;SDS011;9939;49.246;9.106;2024-03-25T00:11:00;9.33;;;3.23;;
19585;SDS011;9939;49.246;9.106;2024-03-25T00:13:27;6.43;;;2.67;;
19585;SDS011;9939;49.246;9.106;2024-03-25T00:15:53;7.17;;;2.97;;
19585;SDS011;9939;49.246;9.106;2024-03-25T00:18:19;6.23;;;3.00;;
19585;SDS011;9939;49.246;9.106;2024-03-25T00:20:45;7.37;;;2.90;;
19585;SDS011;9939;49.246;9.106;2024-03-25T00:23:11;7.93;;;2.80;;
19585;SDS011;9939;49.246;9.106;2024-03-25T00:25:37;12.10;;;3.50;;
19585;SDS011;9939;49.246;9.106;2024-03-25T00:28:03;7.93;;;3.07;;
19585;SDS011;9939;49.246;9.106;2024-03-25T00:30:29;10.43;;;3.17;;
19585;SDS011;9939;49.246;9.106;2024-03-25T00:32:56;9.67;;;2.87;;
19585;SDS011;9939;49.246;9.106;2024-03-25T00:35:22;9.87;;;3.10;;
19585;SDS011;9939;49.246;9.106;2024-03-25T00:37:48;10.53;;;2.70;;
19585;SDS011;9939;49.246;9.106;2024-03-25T00:40:14;7.37;;;2.90;;
19585;SDS011;9939;49.246;9.106;2024-03-25T00:42:40;8.83;;;3.00;;
19585;SDS011;9939;49.246;9.106;2024-03-25T00:45:06;7.53;;;3.43;;
19585;SDS011;9939;49.246;9.106;2024-03-25T00:47:33;9.20;;;3.10;;
19585;SDS011;9939;49.246;9.106;2024-03-25T00:49:59;6.47;;;3.07;;
19585;SDS011;9939;49.246;9.106;2024-03-25T00:52:25;8.30;;;2.50;;
19585;SDS011;9939;49.246;9.106;2024-03-25T00:54:51;9.00;;;3.07;;
19585;SDS011;9939;49.246;9.106;2024-03-25T00:57:17;7.63;;;3.43;;
19585;SDS011;9939;49.246;9.106;2024-03-25T00:59:44;10.53;;;2.87;;
19585;SDS011;9939;49.246;9.106;2024-03-25T01:02:10;7.90;;;3.07;;
19585;SDS011;9939;49.246;9.106;2024-03-25T01:04:36;6.80;;;3.00;;
19585;SDS011;9939;49.246;9.106;2024-03-25T01:07:03;11.60;;;3.63;;
19585;SDS011;9939;49.246;9.106;2024-03-25T01:09:29;9.13;;;3.27;;
19585;SDS011;9939;49.246;9.106;2024-03-25T01:11:55;7.17;;;3.07;;
19585;SDS011;9939;49.246;9.106;2024-03-25T01:14:21;9.30;;;3.20;;
19585;SDS011;9939;49.246;9.106;2024-03-25T01:16:48;10.77;;;4.03;;
19585;SDS011;9939;49.246;9.106;2024-03-25T01:19:14;7.57;;;3.10;;
19585;SDS011;9939;49.246;9.106;2024-03-25T01:21:40;8.43;;;3.40;;
19585;SDS011;9939;49.246;9.106;2024-03-25T01:24:06;8.33;;;3.60;;
19585;SDS011;9939;49.246;9.106;2024-03-25T01:26:32;6.97;;;3.10;;
19585;SDS011;9939;49.246;9.106;2024-03-25T01:28:58;6.67;;;2.97;;
19585;SDS011;9939;49.246;9.106;2024-03-25T01:31:24;8.30;;;3.47;;
19585;SDS011;9939;49.246;9.106;2024-03-25T01:33:51;9.27;;;3.30;;
19585;SDS011;9939;49.246;9.106;2024-03-25T01:36:17;9.27;;;3.07;;
19585;SDS011;9939;49.246;9.106;2024-03-25T01:38:46;10.40;;;3.30;;
19585;SDS011;9939;49.246;9.106;2024-03-25T01:41:12;8.60;;;3.53;;
19585;SDS011;9939;49.246;9.106;2024-03-25T01:43:41;8.77;;;3.50;;
19585;SDS011;9939;49.246;9.106;2024-03-25T01:46:08;14.03;;;3.77;;
19585;SDS011;9939;49.246;9.106;2024-03-25T01:48:35;8.87;;;3.50;;
19585;SDS011;9939;49.246;9.106;2024-03-25T01:51:01;7.57;;;3.40;;
19585;SDS011;9939;49.246;9.106;2024-03-25T01:53:29;9.10;;;3.43;;
19585;SDS011;9939;49.246;9.106;2024-03-25T01:55:56;8.00;;;3.23;;
19585;SDS011;9939;49.246;9.106;2024-03-25T01:58:25;9.87;;;3.50;;
19585;SDS011;9939;49.246;9.106;2024-03-25T02:00:52;10.80;;;3.80;;
19585;SDS011;9939;49.246;9.106;2024-03-25T02:03:20;8.20;;;3.67;;
19585;SDS011;9939;49.246;9.106;2024-03-25T02:05:48;9.57;;;3.60;;
19585;SDS011;9939;49.246;9.106;2024-03-25T02:08:18;8.77;;;3.60;;
19585;SDS011;9939;49.246;9.106;2024-03-25T02:10:45;12.47;;;4.17;;
19585;SDS011;9939;49.246;9.106;2024-03-25T02:13:12;7.83;;;3.40;;
19585;SDS011;9939;49.246;9.106;2024-03-25T02:15:38;9.07;;;3.57;;
19585;SDS011;9939;49.246;9.106;2024-03-25T02:18:06;11.87;;;4.20;;
19585;SDS011;9939;49.246;9.106;2024-03-25T02:20:32;8.30;;;3.87;;
19585;SDS011;9939;49.246;9.106;2024-03-25T02:22:58;9.17;;;3.63;;
19585;SDS011;9939;49.246;9.106;2024-03-25T02:25:24;10.60;;;4.63;;
19585;SDS011;9939;49.246;9.106;2024-03-25T02:27:51;10.20;;;3.90;;
19585;SDS011;9939;49.246;9.106;2024-03-25T02:30:17;11.00;;;4.20;;
19585;SDS011;9939;49.246;9.106;2024-03-25T02:32:43;11.20;;;4.30;;
19585;SDS011;9939;49.246;9.106;2024-03-25T02:35:11;10.63;;;3.87;;
19585;SDS011;9939;49.246;9.106;2024-03-25T02:37:42;13.03;;;4.37;;
19585;SDS011;9939;49.246;9.106;2024-03-25T02:40:08;8.93;;;3.97;;
19585;SDS011;9939;49.246;9.106;2024-03-25T02:42:37;10.57;;;4.40;;
19585;SDS011;9939;49.246;9.106;2024-03-25T02:45:05;11.73;;;4.43;;
19585;SDS011;9939;49.246;9.106;2024-03-25T02:47:32;11.53;;;4.43;;
19585;SDS011;9939;49.246;9.106;2024-03-25T02:49:58;10.57;;;4.30;;
19585;SDS011;9939;49.246;9.106;2024-03-25T02:52:24;10.17;;;4.20;;
19585;SDS011;9939;49.246;9.106;2024-03-25T02:54:50;8.10;;;4.23;;
19585;SDS011;9939;49.246;9.106;2024-03-25T02:57:16;10.23;;;4.30;;
19585;SDS011;9939;49.246;9.106;2024-03-25T02:59:42;9.97;;;4.10;;
19585;SDS011;9939;49.246;9.106;2024-03-25T03:02:08;9.77;;;4.00;;
19585;SDS011;9939;49.246;9.106;2024-03-25T03:04:35;9.77;;;4.17;;
19585;SDS011;9939;49.246;9.106;2024-03-25T03:07:01;12.47;;;4.13;;
19585;SDS011;9939;49.246;9.106;2024-03-25T03:09:27;7.97;;;3.77;;
19585;SDS011;9939;49.246;9.106;2024-03-25T03:11:53;8.73;;;3.77;;
19585;SDS011;9939;49.246;9.106;2024-03-25T03:14:19;8.60;;;4.13;;
19585;SDS011;9939;49.246;9.106;2024-03-25T03:16:46;11.77;;;4.40;;
19585;SDS011;9939;49.246;9.106;2024-03-25T03:19:12;10.47;;;4.03;;
19585;SDS011;9939;49.246;9.106;2024-03-25T03:21:38;8.70;;;4.03;;
19585;SDS011;9939;49.246;9.106;2024-03-25T03:24:04;9.67;;;3.90;;
19585;SDS011;9939;49.246;9.106;2024-03-25T03:26:31;8.97;;;3.80;;
19585;SDS011;9939;49.246;9.106;2024-03-25T03:28:57;12.17;;;4.33;;
19585;SDS011;9939;49.246;9.106;2024-03-25T03:31:23;13.60;;;4.50;;
19585;SDS011;9939;49.246;9.106;2024-03-25T03:33:51;8.43;;;4.03;;
19585;SDS011;9939;49.246;9.106;2024-03-25T03:36:18;8.47;;;3.87;;
19585;SDS011;9939;49.246;9.106;2024-03-25T03:38:45;10.60;;;4.70;;
19585;SDS011;9939;49.246;9.106;2024-03-25T03:41:12;9.00;;;3.97;;
19585;SDS011;9939;49.246;9.106;2024-03-25T03:43:38;8.87;;;4.50;;
19585;SDS011;9939;49.246;9.106;2024-03-25T03:46:04;10.33;;;4.43;;
19585;SDS011;9939;49.246;9.106;2024-03-25T03:48:32;10.73;;;4.53;;
19585;SDS011;9939;49.246;9.106;2024-03-25T03:50:58;11.87;;;4.10;;
19585;SDS011;9939;49.246;9.106;2024-03-25T03:53:24;9.67;;;4.10;;
19585;SDS011;9939;49.246;9.106;2024-03-25T03:55:54;8.67;;;4.20;;
19585;SDS011;9939;49.246;9.106;2024-03-25T03:58:21;10.80;;;4.47;;
19585;SDS011;9939;49.246;9.106;2024-03-25T04:00:48;8.53;;;4.37;;
19585;SDS011;9939;49.246;9.106;2024-03-25T04:03:15;13.67;;;4.67;;
19585;SDS011;9939;49.246;9.106;2024-03-25T04:05:41;9.93;;;3.93;;
19585;SDS011;9939;49.246;9.106;2024-03-25T04:08:07;13.97;;;4.20;;
19585;SDS011;9939;49.246;9.106;2024-03-25T04:10:34;12.67;;;4.37;;
19585;SDS011;9939;49.246;9.106;2024-03-25T04:13:01;10.30;;;3.93;;
19585;SDS011;9939;49.246;9.106;2024-03-25T04:15:28;10.20;;;4.47;;
19585;SDS011;9939;49.246;9.106;2024-03-25T04:17:54;9.67;;;4.00;;
19585;SDS011;9939;49.246;9.106;2024-03-25T04:20:20;8.83;;;4.47;;
19585;SDS011;9939;49.246;9.106;2024-03-25T04:22:46;12.77;;;4.37;;
19585;SDS011;9939;49.246;9.106;2024-03-25T04:25:13;10.87;;;4.57;;
19585;SDS011;9939;49.246;9.106;2024-03-25T04:27:42;12.93;;;4.03;;
19585;SDS011;9939;49.246;9.106;2024-03-25T04:30:09;14.43;;;4.63;;
19585;SDS011;9939;49.246;9.106;2024-03-25T04:32:37;9.80;;;4.40;;
19585;SDS011;9939;49.246;9.106;2024-03-25T04:35:04;13.90;;;4.30;;
19585;SDS011;9939;49.246;9.106;2024-03-25T04:37:31;10.77;;;4.63;;
19585;SDS011;9939;49.246;9.106;2024-03-25T04:39:58;12.47;;;4.13;;
19585;SDS011;9939;49.246;9.106;2024-03-25T04:42:24;13.37;;;4.40;;
19585;SDS011;9939;49.246;9.106;2024-03-25T04:44:50;10.33;;;4.33;;
19585;SDS011;9939;49.246;9.106;2024-03-25T04:47:17;12.07;;;4.63;;
19585;SDS011;9939;49.246;9.106;2024-03-25T04:49:43;13.97;;;4.37;;
19585;SDS011;9939;49.246;9.106;2024-03-25T04:52:12;12.07;;;4.97;;
19585;SDS011;9939;49.246;9.106;2024-03-25T04:54:42;16.10;;;4.57;;
19585;SDS011;9939;49.246;9.106;2024-03-25T04:57:09;14.13;;;4.70;;
19585;SDS011;9939;49.246;9.106;2024-03-25T04:59:35;9.50;;;5.07;;
19585;SDS011;9939;49.246;9.106;2024-03-25T05:02:01;12.33;;;4.80;;
19585;SDS011;9939;49.246;9.106;2024-03-25T05:04:27;12.67;;;4.63;;
19585;SDS011;9939;49.246;9.106;2024-03-25T05:06:54;11.93;;;4.70;;
19585;SDS011;9939;49.246;9.106;2024-03-25T05:09:20;13.47;;;4.67;;
19585;SDS011;9939;49.246;9.106;2024-03-25T05:11:46;13.03;;;5.13;;
19585;SDS011;9939;49.246;9.106;2024-03-25T05:14:12;11.60;;;4.70;;
19585;SDS011;9939;49.246;9.106;2024-03-25T05:16:38;11.77;;;5.07;;
19585;SDS011;9939;49.246;9.106;2024-03-25T05:19:04;10.93;;;4.83;;
19585;SDS011;9939;49.246;9.106;2024-03-25T05:21:33;11.77;;;4.63;;
19585;SDS011;9939;49.246;9.106;2024-03-25T05:23:59;17.83;;;5.37;;
19585;SDS011;9939;49.246;9.106;2024-03-25T05:26:25;12.17;;;5.30;;
19585;SDS011;9939;49.246;9.106;2024-03-25T05:28:57;10.17;;;4.93;;
19585;SDS011;9939;49.246;9.106;2024-03-25T05:31:23;13.90;;;5.83;;
19585;SDS011;9939;49.246;9.106;2024-03-25T05:33:51;16.03;;;6.40;;
19585;SDS011;9939;49.246;9.106;2024-03-25T05:36:17;13.20;;;5.87;;
19585;SDS011;9939;49.246;9.106;2024-03-25T05:38:43;14.63;;;5.57;;
19585;SDS011;9939;49.246;9.106;2024-03-25T05:41:09;14.23;;;5.90;;
19585;SDS011;9939;49.246;9.106;2024-03-25T05:43:36;13.73;;;5.87;;
19585;SDS011;9939;49.246;9.106;2024-03-25T05:46:03;13.63;;;5.90;;
19585;SDS011;9939;49.246;9.106;2024-03-25T05:48:29;14.90;;;6.43;;
19585;SDS011;9939;49.246;9.106;2024-03-25T05:51:03;16.63;;;6.20;;
19585;SDS011;9939;49.246;9.106;2024-03-25T05:53:33;12.17;;;5.57;;
19585;SDS011;9939;49.246;9.106;2024-03-25T05:55:59;11.53;;;6.07;;
19585;SDS011;9939;49.246;9.106;2024-03-25T05:58:26;15.53;;;5.83;;
19585;SDS011;9939;49.246;9.106;2024-03-25T06:00:53;14.27;;;5.70;;
19585;SDS011;9939;49.246;9.106;2024-03-25T06:03:19;12.43;;;5.70;;
19585;SDS011;9939;49.246;9.106;2024-03-25T06:05:46;13.10;;;4.97;;
19585;SDS011;9939;49.246;9.106;2024-03-25T06:08:12;12.00;;;5.67;;
19585;SDS011;9939;49.246;9.106;2024-03-25T06:10:50;10.63;;;5.17;;
19585;SDS011;9939;49.246;9.106;2024-03-25T06:13:16;12.23;;;5.60;;
19585;SDS011;9939;49.246;9.106;2024-03-25T06:15:43;14.87;;;6.17;;
19585;SDS011;9939;49.246;9.106;2024-03-25T06:18:09;15.20;;;6.13;;
19585;SDS011;9939;49.246;9.106;2024-03-25T06:20:35;18.40;;;6.30;;
19585;SDS011;9939;49.246;9.106;2024-03-25T06:23:01;14.93;;;6.70;;
19585;SDS011;9939;49.246;9.106;2024-03-25T06:25:27;13.03;;;6.00;;
19585;SDS011;9939;49.246;9.106;2024-03-25T06:27:55;13.83;;;5.43;;
19585;SDS011;9939;49.246;9.106;2024-03-25T06:30:21;10.73;;;4.97;;
19585;SDS011;9939;49.246;9.106;2024-03-25T06:33:06;13.10;;;5.47;;
19585;SDS011;9939;49.246;9.106;2024-03-25T06:35:50;11.77;;;4.77;;
19585;SDS011;9939;49.246;9.106;2024-03-25T06:38:17;10.50;;;4.70;;
19585;SDS011;9939;49.246;9.106;2024-03-25T06:40:44;12.57;;;4.50;;
19585;SDS011;9939;49.246;9.106;2024-03-25T06:43:11;13.03;;;4.63;;
19585;SDS011;9939;49.246;9.106;2024-03-25T06:45:37;13.83;;;5.63;;
19585;SDS011;9939;49.246;9.106;2024-03-25T06:48:03;12.83;;;5.00;;
19585;SDS011;9939;49.246;9.106;2024-03-25T06:50:30;11.47;;;4.83;;
19585;SDS011;9939;49.246;9.106;2024-03-25T06:52:56;8.80;;;4.23;;
19585;SDS011;9939;49.246;9.106;2024-03-25T06:55:23;10.70;;;4.53;;
19585;SDS011;9939;49.246;9.106;2024-03-25T06:57:52;8.97;;;4.53;;
19585;SDS011;9939;49.246;9.106;2024-03-25T07:00:19;11.40;;;4.30;;
19585;SDS011;9939;49.246;9.106;2024-03-25T07:02:50;8.97;;;4.33;;
19585;SDS011;9939;49.246;9.106;2024-03-25T07:05:16;9.77;;;4.60;;
19585;SDS011;9939;49.246;9.106;2024-03-25T07:07:42;10.30;;;4.60;;
19585;SDS011;9939;49.246;9.106;2024-03-25T07:10:08;7.33;;;4.10;;
19585;SDS011;9939;49.246;9.106;2024-03-25T07:12:34;9.83;;;3.57;;
19585;SDS011;9939;49.246;9.106;2024-03-25T07:15:00;8.30;;;3.77;;
19585;SDS011;9939;49.246;9.106;2024-03-25T07:17:26;14.33;;;4.07;;
19585;SDS011;9939;49.246;9.106;2024-03-25T07:19:52;10.97;;;4.10;;
19585;SDS011;9939;49.246;9.106;2024-03-25T07:22:18;11.13;;;4.03;;
19585;SDS011;9939;49.246;9.106;2024-03-25T07:24:45;12.90;;;4.30;;
19585;SDS011;9939;49.246;9.106;2024-03-25T07:27:11;8.87;;;3.70;;
19585;SDS011;9939;49.246;9.106;2024-03-25T07:29:38;8.23;;;3.33;;
19585;SDS011;9939;49.246;9.106;2024-03-25T07:32:04;10.67;;;4.20;;
19585;SDS011;9939;49.246;9.106;2024-03-25T07:34:30;13.00;;;3.80;;
19585;SDS011;9939;49.246;9.106;2024-03-25T07:36:56;11.10;;;3.83;;
19585;SDS011;9939;49.246;9.106;2024-03-25T07:39:22;12.10;;;4.60;;
19585;SDS011;9939;49.246;9.106;2024-03-25T07:41:52;8.53;;;3.37;;
19585;SDS011;9939;49.246;9.106;2024-03-25T07:44:19;8.97;;;3.37;;
19585;SDS011;9939;49.246;9.106;2024-03-25T07:46:45;10.67;;;3.43;;
19585;SDS011;9939;49.246;9.106;2024-03-25T07:49:11;8.20;;;3.60;;
19585;SDS011;9939;49.246;9.106;2024-03-25T07:51:38;10.67;;;3.10;;
19585;SDS011;9939;49.246;9.106;2024-03-25T07:54:05;12.03;;;3.33;;
19585;SDS011;9939;49.246;9.106;2024-03-25T07:56:31;9.07;;;3.13;;
19585;SDS011;9939;49.246;9.106;2024-03-25T07:59:02;7.30;;;2.60;;
19585;SDS011;9939;49.246;9.106;2024-03-25T08:01:29;8.27;;;2.73;;
19585;SDS011;9939;49.246;9.106;2024-03-25T08:03:55;8.37;;;2.53;;
19585;SDS011;9939;49.246;9.106;2024-03-25T08:06:21;9.20;;;2.80;;
19585;SDS011;9939;49.246;9.106;2024-03-25T08:08:48;4.73;;;2.00;;
19585;SDS011;9939;49.246;9.106;2024-03-25T08:11:14;6.30;;;2.13;;
19585;SDS011;9939;49.246;9.106;2024-03-25T08:13:40;5.43;;;2.07;;
19585;SDS011;9939;49.246;9.106;2024-03-25T08:16:06;6.93;;;2.13;;
19585;SDS011;9939;49.246;9.106;2024-03-25T08:18:33;7.07;;;2.13;;
19585;SDS011;9939;49.246;9.106;2024-03-25T08:20:59;8.13;;;2.93;;
19585;SDS011;9939;49.246;9.106;2024-03-25T08:23:25;6.47;;;2.30;;
19585;SDS011;9939;49.246;9.106;2024-03-25T08:25:52;6.30;;;1.97;;
19585;SDS011;9939;49.246;9.106;2024-03-25T08:28:18;10.23;;;2.00;;
19585;SDS011;9939;49.246;9.106;2024-03-25T08:30:44;7.37;;;1.97;;
19585;SDS011;9939;49.246;9.106;2024-03-25T08:33:10;8.87;;;2.13;;
19585;SDS011;9939;49.246;9.106;2024-03-25T08:35:37;5.17;;;2.00;;
19585;SDS011;9939;49.246;9.106;2024-03-25T08:38:03;7.83;;;1.90;;
19585;SDS011;9939;49.246;9.106;2024-03-25T08:40:30;5.93;;;1.93;;
19585;SDS011;9939;49.246;9.106;2024-03-25T08:42:56;8.43;;;2.30;;
19585;SDS011;9939;49.246;9.106;2024-03-25T08:45:22;8.90;;;1.97;;
19585;SDS011;9939;49.246;9.106;2024-03-25T08:47:48;7.43;;;2.00;;
19585;SDS011;9939;49.246;9.106;2024-03-25T08:50:14;5.60;;;2.00;;
19585;SDS011;9939;49.246;9.106;2024-03-25T08:52:40;6.67;;;2.27;;
19585;SDS011;9939;49.246;9.106;2024-03-25T08:55:06;5.00;;;1.40;;
19585;SDS011;9939;49.246;9.106;2024-03-25T08:57:32;5.13;;;1.80;;
19585;SDS011;9939;49.246;9.106;2024-03-25T08:59:58;8.23;;;1.90;;
19585;SDS011;9939;49.246;9.106;2024-03-25T09:02:24;5.53;;;2.00;;
19585;SDS011;9939;49.246;9.106;2024-03-25T09:04:50;7.60;;;3.20;;
19585;SDS011;9939;49.246;9.106;2024-03-25T09:07:19;4.67;;;1.67;;
19585;SDS011;9939;49.246;9.106;2024-03-25T09:09:45;5.50;;;1.70;;
19585;SDS011;9939;49.246;9.106;2024-03-25T09:12:30;4.33;;;1.70;;
19585;SDS011;9939;49.246;9.106;2024-03-25T09:14:56;5.13;;;1.97;;
19585;SDS011;9939;49.246;9.106;2024-03-25T09:17:22;7.00;;;2.27;;
19585;SDS011;9939;49.246;9.106;2024-03-25T09:19:50;4.43;;;1.80;;
19585;SDS011;9939;49.246;9.106;2024-03-25T09:22:16;4.70;;;1.40;;
19585;SDS011;9939;49.246;9.106;2024-03-25T09:24:43;4.83;;;1.70;;
19585;SDS011;9939;49.246;9.106;2024-03-25T09:27:10;4.37;;;1.43;;
19585;SDS011;9939;49.246;9.106;2024-03-25T09:29:36;6.47;;;1.60;;
19585;SDS011;9939;49.246;9.106;2024-03-25T09:32:02;4.67;;;1.63;;
19585;SDS011;9939;49.246;9.106;2024-03-25T09:34:29;4.53;;;1.53;;
19585;SDS011;9939;49.246;9.106;2024-03-25T09:36:55;6.23;;;1.60;;
19585;SDS011;9939;49.246;9.106;2024-03-25T09:39:21;4.87;;;1.97;;
19585;SDS011;9939;49.246;9.106;2024-03-25T09:45:47;9.03;;;2.30;;
19585;SDS011;9939;49.246;9.106;2024-03-25T09:48:15;3.63;;;1.60;;
19585;SDS011;9939;49.246;9.106;2024-03-25T09:50:43;5.67;;;1.67;;
19585;SDS011;9939;49.246;9.106;2024-03-25T09:53:11;4.10;;;1.70;;
19585;SDS011;9939;49.246;9.106;2024-03-25T09:55:37;4.93;;;1.70;;
19585;SDS011;9939;49.246;9.106;2024-03-25T09:58:03;5.07;;;1.47;;
19585;SDS011;9939;49.246;9.106;2024-03-25T10:00:30;5.17;;;1.60;;
19585;SDS011;9939;49.246;9.106;2024-03-25T10:02:56;5.83;;;1.90;;
19585;SDS011;9939;49.246;9.106;2024-03-25T10:05:22;6.27;;;1.83;;
19585;SDS011;9939;49.246;9.106;2024-03-25T10:07:48;3.60;;;1.83;;
19585;SDS011;9939;49.246;9.106;2024-03-25T10:10:19;5.63;;;1.70;;
19585;SDS011;9939;49.246;9.106;2024-03-25T10:12:45;5.17;;;2.07;;
19585;SDS011;9939;49.246;9.106;2024-03-25T10:15:18;4.97;;;2.00;;
19585;SDS011;9939;49.246;9.106;2024-03-25T10:17:44;3.97;;;1.73;;
19585;SDS011;9939;49.246;9.106;2024-03-25T10:20:13;7.63;;;2.10;;
19585;SDS011;9939;49.246;9.106;2024-03-25T10:22:43;5.93;;;2.00;;
19585;SDS011;9939;49.246;9.106;2024-03-25T10:28:05;8.20;;;2.10;;
19585;SDS011;9939;49.246;9.106;2024-03-25T10:30:31;5.33;;;2.13;;
19585;SDS011;9939;49.246;9.106;2024-03-25T10:33:04;5.17;;;2.17;;
19585;SDS011;9939;49.246;9.106;2024-03-25T10:35:31;3.73;;;1.77;;
19585;SDS011;9939;49.246;9.106;2024-03-25T10:38:03;3.53;;;1.60;;
19585;SDS011;9939;49.246;9.106;2024-03-25T10:40:31;5.73;;;2.10;;
19585;SDS011;9939;49.246;9.106;2024-03-25T10:45:35;5.03;;;1.80;;
19585;SDS011;9939;49.246;9.106;2024-03-25T10:48:03;5.83;;;2.00;;
19585;SDS011;9939;49.246;9.106;2024-03-25T10:50:37;5.80;;;1.70;;
19585;SDS011;9939;49.246;9.106;2024-03-25T10:53:04;5.47;;;1.67;;
19585;SDS011;9939;49.246;9.106;2024-03-25T10:55:32;6.10;;;1.80;;
19585;SDS011;9939;49.246;9.106;2024-03-25T10:58:00;7.20;;;1.80;;
19585;SDS011;9939;49.246;9.106;2024-03-25T11:00:28;4.43;;;1.87;;
19585;SDS011;9939;49.246;9.106;2024-03-25T11:02:55;4.00;;;1.80;;
19585;SDS011;9939;49.246;9.106;2024-03-25T11:05:23;7.00;;;1.80;;
19585;SDS011;9939;49.246;9.106;2024-03-25T11:07:49;6.63;;;1.90;;
19585;SDS011;9939;49.246;9.106;2024-03-25T11:10:15;4.23;;;1.53;;
19585;SDS011;9939;49.246;9.106;2024-03-25T11:12:42;4.87;;;2.00;;
19585;SDS011;9939;49.246;9.106;2024-03-25T11:15:08;6.03;;;1.80;;
19585;SDS011;9939;49.246;9.106;2024-03-25T11:17:35;5.97;;;1.73;;
19585;SDS011;9939;49.246;9.106;2024-03-25T11:20:15;6.10;;;1.70;;
19585;SDS011;9939;49.246;9.106;2024-03-25T11:22:51;5.43;;;1.97;;
19585;SDS011;9939;49.246;9.106;2024-03-25T11:25:19;9.03;;;2.37;;
19585;SDS011;9939;49.246;9.106;2024-03-25T11:27:47;7.50;;;1.80;;
19585;SDS011;9939;49.246;9.106;2024-03-25T11:30:13;5.17;;;2.00;;
19585;SDS011;9939;49.246;9.106;2024-03-25T11:32:43;5.93;;;1.80;;
19585;SDS011;9939;49.246;9.106;2024-03-25T11:35:10;5.80;;;1.83;;
19585;SDS011;9939;49.246;9.106;2024-03-25T11:37:42;6.47;;;1.57;;
19585;SDS011;9939;49.246;9.106;2024-03-25T11:40:09;4.33;;;2.17;;
19585;SDS011;9939;49.246;9.106;2024-03-25T11:42:38;5.23;;;2.10;;
19585;SDS011;9939;49.246;9.106;2024-03-25T11:45:15;5.47;;;1.83;;
19585;SDS011;9939;49.246;9.106;2024-03-25T11:47:46;4.90;;;1.70;;
19585;SDS011;9939;49.246;9.106;2024-03-25T11:50:17;4.93;;;1.83;;
19585;SDS011;9939;49.246;9.106;2024-03-25T11:52:45;4.37;;;1.87;;
19585;SDS011;9939;49.246;9.106;2024-03-25T11:55:15;4.07;;;1.43;;
19585;SDS011;9939;49.246;9.106;2024-03-25T11:57:42;3.97;;;1.60;;
19585;SDS011;9939;49.246;9.106;2024-03-25T12:00:09;4.53;;;1.60;;
19585;SDS011;9939;49.246;9.106;2024-03-25T12:02:43;4.03;;;1.57;;
19585;SDS011;9939;49.246;9.106;2024-03-25T12:05:12;5.80;;;1.90;;
19585;SDS011;9939;49.246;9.106;2024-03-25T12:07:38;4.87;;;1.40;;
19585;SDS011;9939;49.246;9.106;2024-03-25T12:10:04;5.10;;;2.13;;
19585;SDS011;9939;49.246;9.106;2024-03-25T12:12:49;6.00;;;1.83;;
19585;SDS011;9939;49.246;9.106;2024-03-25T12:15:21;5.33;;;1.60;;
19585;SDS011;9939;49.246;9.106;2024-03-25T12:17:48;7.20;;;1.80;;
19585;SDS011;9939;49.246;9.106;2024-03-25T12:20:16;5.03;;;1.80;;
19585;SDS011;9939;49.246;9.106;2024-03-25T12:22:43;4.93;;;1.77;;
19585;SDS011;9939;49.246;9.106;2024-03-25T12:25:09;4.80;;;1.57;;
19585;SDS011;9939;49.246;9.106;2024-03-25T12:27:37;5.43;;;2.00;;
19585;SDS011;9939;49.246;9.106;2024-03-25T12:30:07;7.63;;;2.17;;
19585;SDS011;9939;49.246;9.106;2024-03-25T12:32:41;5.73;;;2.03;;
19585;SDS011;9939;49.246;9.106;2024-03-25T12:35:09;6.37;;;2.23;;
19585;SDS011;9939;49.246;9.106;2024-03-25T12:37:37;4.83;;;1.83;;
19585;SDS011;9939;49.246;9.106;2024-03-25T12:40:09;4.37;;;1.77;;
19585;SDS011;9939;49.246;9.106;2024-03-25T12:42:36;5.23;;;2.10;;
19585;SDS011;9939;49.246;9.106;2024-03-25T12:45:04;4.23;;;1.83;;
19585;SDS011;9939;49.246;9.106;2024-03-25T12:47:31;5.30;;;1.80;;
19585;SDS011;9939;49.246;9.106;2024-03-25T12:49:58;4.50;;;1.83;;
19585;SDS011;9939;49.246;9.106;2024-03-25T12:52:24;5.83;;;1.80;;
19585;SDS011;9939;49.246;9.106;2024-03-25T12:54:51;4.07;;;1.70;;
19585;SDS011;9939;49.246;9.106;2024-03-25T12:57:17;4.50;;;1.77;;
19585;SDS011;9939;49.246;9.106;2024-03-25T12:59:44;4.27;;;1.80;;
19585;SDS011;9939;49.246;9.106;2024-03-25T13:02:11;5.30;;;1.57;;
19585;SDS011;9939;49.246;9.106;2024-03-25T13:04:38;7.97;;;2.10;;
19585;SDS011;9939;49.246;9.106;2024-03-25T13:07:06;4.47;;;2.00;;
19585;SDS011;9939;49.246;9.106;2024-03-25T13:09:32;4.37;;;1.70;;
19585;SDS011;9939;49.246;9.106;2024-03-25T13:11:59;5.80;;;2.13;;
19585;SDS011;9939;49.246;9.106;2024-03-25T13:14:25;3.33;;;1.63;;
19585;SDS011;9939;49.246;9.106;2024-03-25T13:16:51;4.67;;;2.00;;
19585;SDS011;9939;49.246;9.106;2024-03-25T13:19:17;5.57;;;1.80;;
19585;SDS011;9939;49.246;9.106;2024-03-25T13:21:43;4.47;;;1.73;;
19585;SDS011;9939;49.246;9.106;2024-03-25T13:24:10;4.57;;;1.50;;
19585;SDS011;9939;49.246;9.106;2024-03-25T13:26:36;5.33;;;2.03;;
19585;SDS011;9939;49.246;9.106;2024-03-25T13:29:02;4.47;;;1.80;;
19585;SDS011;9939;49.246;9.106;2024-03-25T13:31:28;3.93;;;1.53;;
19585;SDS011;9939;49.246;9.106;2024-03-25T13:33:54;4.13;;;1.60;;
19585;SDS011;9939;49.246;9.106;2024-03-25T13:36:20;4.27;;;1.80;;
19585;SDS011;9939;49.246;9.106;2024-03-25T13:38:46;6.17;;;1.73;;
19585;SDS011;9939;49.246;9.106;2024-03-25T13:41:12;6.90;;;1.93;;
19585;SDS011;9939;49.246;9.106;2024-03-25T13:43:42;6.00;;;2.00;;
19585;SDS011;9939;49.246;9.106;2024-03-25T13:46:08;6.30;;;1.80;;
19585;SDS011;9939;49.246;9.106;2024-03-25T13:48:35;4.10;;;1.60;;
19585;SDS011;9939;49.246;9.106;2024-03-25T13:51:01;6.63;;;2.07;;
19585;SDS011;9939;49.246;9.106;2024-03-25T13:53:27;3.77;;;1.70;;
19585;SDS011;9939;49.246;9.106;2024-03-25T13:55:53;5.20;;;2.33;;
19585;SDS011;9939;49.246;9.106;2024-03-25T13:58:19;4.80;;;1.87;;
19585;SDS011;9939;49.246;9.106;2024-03-25T14:00:45;7.47;;;2.63;;
19585;SDS011;9939;49.246;9.106;2024-03-25T14:03:11;6.70;;;2.60;;
19585;SDS011;9939;49.246;9.106;2024-03-25T14:05:37;4.63;;;2.10;;
19585;SDS011;9939;49.246;9.106;2024-03-25T14:08:03;5.33;;;1.97;;
19585;SDS011;9939;49.246;9.106;2024-03-25T14:10:29;4.57;;;1.90;;
19585;SDS011;9939;49.246;9.106;2024-03-25T14:12:55;5.10;;;2.00;;
19585;SDS011;9939;49.246;9.106;2024-03-25T14:15:21;5.40;;;2.17;;
19585;SDS011;9939;49.246;9.106;2024-03-25T14:17:48;3.27;;;1.70;;
19585;SDS011;9939;49.246;9.106;2024-03-25T14:20:14;6.23;;;2.03;;
19585;SDS011;9939;49.246;9.106;2024-03-25T14:22:40;5.43;;;1.90;;
19585;SDS011;9939;49.246;9.106;2024-03-25T14:25:07;5.93;;;1.83;;
19585;SDS011;9939;49.246;9.106;2024-03-25T14:27:34;4.37;;;2.07;;
19585;SDS011;9939;49.246;9.106;2024-03-25T14:30:00;4.13;;;1.80;;
19585;SDS011;9939;49.246;9.106;2024-03-25T14:32:26;5.83;;;1.87;;
19585;SDS011;9939;49.246;9.106;2024-03-25T14:34:52;5.10;;;2.00;;
19585;SDS011;9939;49.246;9.106;2024-03-25T14:37:21;4.32;;;1.70;;
19585;SDS011;9939;49.246;9.106;2024-03-25T14:39:47;4.68;;;2.03;;
19585;SDS011;9939;49.246;9.106;2024-03-25T14:42:13;4.15;;;1.60;;
19585;SDS011;9939;49.246;9.106;2024-03-25T14:44:39;6.00;;;2.10;;
19585;SDS011;9939;49.246;9.106;2024-03-25T14:47:05;7.10;;;2.30;;
19585;SDS011;9939;49.246;9.106;2024-03-25T14:49:31;4.73;;;1.90;;
19585;SDS011;9939;49.246;9.106;2024-03-25T14:51:57;7.33;;;1.90;;
19585;SDS011;9939;49.246;9.106;2024-03-25T14:54:23;5.03;;;2.20;;
19585;SDS011;9939;49.246;9.106;2024-03-25T14:57:03;4.47;;;2.00;;
19585;SDS011;9939;49.246;9.106;2024-03-25T14:59:29;6.73;;;2.30;;
19585;SDS011;9939;49.246;9.106;2024-03-25T15:02:01;6.27;;;2.10;;
19585;SDS011;9939;49.246;9.106;2024-03-25T15:04:28;4.63;;;1.70;;
19585;SDS011;9939;49.246;9.106;2024-03-25T15:06:55;7.03;;;2.00;;